Portada
METAR-TAF:

METAR-TAF

Aeroports :

Aeroport Internacional de Tabarka

Tabarka, Tunísia

latitud: 36-57N, longitud: 008-45E, altitud: 20 m

Observació

L'informe es va fer fa 52 minuts, a les 13:00 UTC
Vent 10 kt del Est
Temperatura 19°C
Humitat 64%
Pressió 1013 hPa
Visibilitat 10 km o més
Núvols disperses a una alçada de 2000 ft

METAR: DTKA 271300Z 10010KT 9999 SCT020 19/12 Q1013 NOSIG

Hora: 14:52 (13:52 UTC)

Pronòstic

L'informe es va fer fa 1 hora i 52 minuts, a les 12:00 UTC
Pronòstic vàlid del 27 a les 13 UTC al 27 a les 22 UTC
Vent 6 kt del Est/Sud-Est
Visibilitat 10 km o més
Núvols disperses a una alçada de 2000 ft
Probabilitat 40% :
Temporalment
l' 27 a les 13 UTC al 27 a les 20 UTC
Vent 16 kt del Sud-Est amb ràfegues de 27 kt

TAF: DTKA 271200Z 2713/2722 11006KT 9999 SCT020 PROB40 TEMPO 2713/2720 14016G27KT

Observacions i pronòstics meteorològics de més de 4000 aeroports (METAR i TAF).

Les estacions disponibles són els punts grocs i vermells al mapa.

Posi el ratolí al punt desitjat per veure el nom de l'estació.

Feu clic per veure les observacions i els pronòstics meteorològics.

Per canviar el mapa: feu clic els botons verds amb una creu de color negre per apropar; al botó verd amb un guió per allunyar la imatge; o en les fletxes verdes per a mapes adjacents.


METAR-TAF: